sensor_id;sensor_type;location;lat;lon;timestamp;pressure;altitude;pressure_sealevel;temperature;humidity
21011;BME280;10663;42.714;23.274;2024-03-25T00:00:14;93650.16;;;2.75;100.00
21011;BME280;10663;42.714;23.274;2024-03-25T00:01:45;93635.78;;;2.73;100.00
21011;BME280;10663;42.714;23.274;2024-03-25T00:03:15;93657.94;;;2.70;100.00
21011;BME280;10663;42.714;23.274;2024-03-25T00:04:46;93647.72;;;2.69;100.00
21011;BME280;10663;42.714;23.274;2024-03-25T00:06:17;93653.00;;;2.52;100.00
21011;BME280;10663;42.714;23.274;2024-03-25T00:07:48;93640.22;;;2.55;100.00
21011;BME280;10663;42.714;23.274;2024-03-25T00:09:18;93650.78;;;2.44;100.00
21011;BME280;10663;42.714;23.274;2024-03-25T00:10:50;93628.72;;;2.35;100.00
21011;BME280;10663;42.714;23.274;2024-03-25T00:12:21;93624.81;;;2.37;100.00
21011;BME280;10663;42.714;23.274;2024-03-25T00:13:52;93624.97;;;2.47;100.00
21011;BME280;10663;42.714;23.274;2024-03-25T00:15:22;93625.22;;;2.46;100.00
21011;BME280;10663;42.714;23.274;2024-03-25T00:16:56;93611.38;;;2.45;100.00
21011;BME280;10663;42.714;23.274;2024-03-25T00:18:26;93616.59;;;2.45;100.00
21011;BME280;10663;42.714;23.274;2024-03-25T00:19:57;93616.59;;;2.45;100.00
21011;BME280;10663;42.714;23.274;2024-03-25T00:21:28;93607.41;;;2.43;100.00
21011;BME280;10663;42.714;23.274;2024-03-25T00:22:59;93604.38;;;2.51;100.00
21011;BME280;10663;42.714;23.274;2024-03-25T00:24:30;93603.66;;;2.55;100.00
21011;BME280;10663;42.714;23.274;2024-03-25T00:26:01;93607.41;;;2.64;100.00
21011;BME280;10663;42.714;23.274;2024-03-25T00:27:32;93590.34;;;2.57;100.00
21011;BME280;10663;42.714;23.274;2024-03-25T00:29:03;93588.75;;;2.56;100.00
21011;BME280;10663;42.714;23.274;2024-03-25T00:30:33;93588.72;;;2.51;100.00
21011;BME280;10663;42.714;23.274;2024-03-25T00:32:04;93587.00;;;2.61;100.00
21011;BME280;10663;42.714;23.274;2024-03-25T00:33:35;93581.84;;;2.67;100.00
21011;BME280;10663;42.714;23.274;2024-03-25T00:35:06;93586.78;;;2.63;100.00
21011;BME280;10663;42.714;23.274;2024-03-25T00:36:37;93584.22;;;2.68;100.00
21011;BME280;10663;42.714;23.274;2024-03-25T00:38:07;93587.63;;;2.69;100.00
21011;BME280;10663;42.714;23.274;2024-03-25T00:39:38;93576.50;;;2.78;100.00
21011;BME280;10663;42.714;23.274;2024-03-25T00:41:09;93589.88;;;2.82;100.00
21011;BME280;10663;42.714;23.274;2024-03-25T00:42:39;93577.22;;;2.95;100.00
21011;BME280;10663;42.714;23.274;2024-03-25T00:44:10;93580.72;;;3.06;100.00
21011;BME280;10663;42.714;23.274;2024-03-25T00:45:41;93589.13;;;3.08;100.00
21011;BME280;10663;42.714;23.274;2024-03-25T00:47:12;93585.16;;;3.06;100.00
21011;BME280;10663;42.714;23.274;2024-03-25T00:48:43;93578.03;;;3.01;100.00
21011;BME280;10663;42.714;23.274;2024-03-25T00:50:13;93589.00;;;2.98;100.00
21011;BME280;10663;42.714;23.274;2024-03-25T00:51:45;93584.50;;;2.93;100.00
21011;BME280;10663;42.714;23.274;2024-03-25T00:53:15;93588.66;;;2.89;100.00
21011;BME280;10663;42.714;23.274;2024-03-25T00:54:46;93583.19;;;2.91;100.00
21011;BME280;10663;42.714;23.274;2024-03-25T00:56:17;93582.56;;;2.84;100.00
21011;BME280;10663;42.714;23.274;2024-03-25T00:57:47;93577.66;;;2.87;100.00
21011;BME280;10663;42.714;23.274;2024-03-25T00:59:19;93567.78;;;2.94;100.00
21011;BME280;10663;42.714;23.274;2024-03-25T01:00:49;93559.50;;;3.03;100.00
21011;BME280;10663;42.714;23.274;2024-03-25T01:02:20;93565.28;;;3.05;100.00
21011;BME280;10663;42.714;23.274;2024-03-25T01:03:51;93560.88;;;3.10;100.00
21011;BME280;10663;42.714;23.274;2024-03-25T01:05:22;93564.63;;;3.19;100.00
21011;BME280;10663;42.714;23.274;2024-03-25T01:06:52;93561.28;;;3.24;100.00
21011;BME280;10663;42.714;23.274;2024-03-25T01:08:23;93545.16;;;3.32;100.00
21011;BME280;10663;42.714;23.274;2024-03-25T01:09:54;93545.97;;;3.37;100.00
21011;BME280;10663;42.714;23.274;2024-03-25T01:11:25;93541.06;;;3.46;100.00
21011;BME280;10663;42.714;23.274;2024-03-25T01:12:55;93535.59;;;3.48;100.00
21011;BME280;10663;42.714;23.274;2024-03-25T01:14:27;93537.19;;;3.49;100.00
21011;BME280;10663;42.714;23.274;2024-03-25T01:15:58;93524.34;;;3.47;100.00
21011;BME280;10663;42.714;23.274;2024-03-25T01:17:28;93528.78;;;3.47;100.00
21011;BME280;10663;42.714;23.274;2024-03-25T01:18:59;93529.63;;;3.52;100.00
21011;BME280;10663;42.714;23.274;2024-03-25T01:20:29;93527.59;;;3.59;100.00
21011;BME280;10663;42.714;23.274;2024-03-25T01:22:00;93520.81;;;3.63;100.00
21011;BME280;10663;42.714;23.274;2024-03-25T01:23:31;93521.31;;;3.60;100.00
21011;BME280;10663;42.714;23.274;2024-03-25T01:25:01;93524.72;;;3.61;100.00
21011;BME280;10663;42.714;23.274;2024-03-25T01:26:32;93527.63;;;3.64;100.00
21011;BME280;10663;42.714;23.274;2024-03-25T01:28:02;93524.25;;;3.69;100.00
21011;BME280;10663;42.714;23.274;2024-03-25T01:29:33;93528.78;;;3.79;100.00
21011;BME280;10663;42.714;23.274;2024-03-25T01:31:03;93533.78;;;3.85;100.00
21011;BME280;10663;42.714;23.274;2024-03-25T01:32:34;93535.16;;;3.93;100.00
21011;BME280;10663;42.714;23.274;2024-03-25T01:34:05;93536.47;;;3.90;100.00
21011;BME280;10663;42.714;23.274;2024-03-25T01:35:36;93529.91;;;3.88;100.00
21011;BME280;10663;42.714;23.274;2024-03-25T01:37:07;93536.16;;;3.87;100.00
21011;BME280;10663;42.714;23.274;2024-03-25T01:38:37;93548.72;;;3.85;100.00
21011;BME280;10663;42.714;23.274;2024-03-25T01:40:08;93553.69;;;3.81;100.00
21011;BME280;10663;42.714;23.274;2024-03-25T01:41:40;93557.41;;;3.90;100.00
21011;BME280;10663;42.714;23.274;2024-03-25T01:43:11;93564.47;;;3.90;100.00
21011;BME280;10663;42.714;23.274;2024-03-25T01:44:41;93566.09;;;3.96;100.00
21011;BME280;10663;42.714;23.274;2024-03-25T01:46:12;93562.66;;;3.90;100.00
21011;BME280;10663;42.714;23.274;2024-03-25T01:47:42;93567.25;;;3.78;100.00
21011;BME280;10663;42.714;23.274;2024-03-25T01:49:13;93563.38;;;3.81;100.00
21011;BME280;10663;42.714;23.274;2024-03-25T01:50:44;93557.25;;;3.70;100.00
21011;BME280;10663;42.714;23.274;2024-03-25T01:52:15;93553.13;;;3.79;100.00
21011;BME280;10663;42.714;23.274;2024-03-25T01:53:46;93566.94;;;3.69;100.00
21011;BME280;10663;42.714;23.274;2024-03-25T01:55:24;93565.31;;;3.63;100.00
21011;BME280;10663;42.714;23.274;2024-03-25T01:56:55;93582.06;;;3.62;100.00
21011;BME280;10663;42.714;23.274;2024-03-25T01:58:26;93582.13;;;3.41;100.00
21011;BME280;10663;42.714;23.274;2024-03-25T01:59:57;93579.38;;;3.25;100.00
21011;BME280;10663;42.714;23.274;2024-03-25T02:01:28;93591.69;;;3.30;100.00
21011;BME280;10663;42.714;23.274;2024-03-25T02:02:59;93587.00;;;3.32;100.00
21011;BME280;10663;42.714;23.274;2024-03-25T02:04:29;93592.69;;;3.24;100.00
21011;BME280;10663;42.714;23.274;2024-03-25T02:06:02;93622.19;;;3.19;100.00
21011;BME280;10663;42.714;23.274;2024-03-25T02:07:35;93610.41;;;3.17;100.00
21011;BME280;10663;42.714;23.274;2024-03-25T02:09:06;93593.41;;;3.19;100.00
21011;BME280;10663;42.714;23.274;2024-03-25T02:10:37;93615.94;;;2.98;100.00
21011;BME280;10663;42.714;23.274;2024-03-25T02:12:08;93612.19;;;2.89;100.00
21011;BME280;10663;42.714;23.274;2024-03-25T02:13:39;93597.81;;;2.92;100.00
21011;BME280;10663;42.714;23.274;2024-03-25T02:15:10;93597.03;;;2.91;100.00
21011;BME280;10663;42.714;23.274;2024-03-25T02:16:41;93598.59;;;2.92;100.00
21011;BME280;10663;42.714;23.274;2024-03-25T02:18:11;93587.63;;;2.90;100.00
21011;BME280;10663;42.714;23.274;2024-03-25T02:19:42;93594.38;;;2.86;100.00
21011;BME280;10663;42.714;23.274;2024-03-25T02:21:12;93590.34;;;2.79;100.00
21011;BME280;10663;42.714;23.274;2024-03-25T02:22:43;93607.78;;;2.73;100.00
21011;BME280;10663;42.714;23.274;2024-03-25T02:24:14;93587.50;;;2.80;100.00
21011;BME280;10663;42.714;23.274;2024-03-25T02:25:52;93574.47;;;2.85;100.00
21011;BME280;10663;42.714;23.274;2024-03-25T02:27:23;93584.88;;;2.80;100.00
21011;BME280;10663;42.714;23.274;2024-03-25T02:28:54;93580.19;;;2.82;100.00
21011;BME280;10663;42.714;23.274;2024-03-25T02:30:24;93576.03;;;2.81;100.00
21011;BME280;10663;42.714;23.274;2024-03-25T02:31:55;93574.59;;;2.95;100.00
21011;BME280;10663;42.714;23.274;2024-03-25T02:33:25;93586.94;;;3.00;100.00
21011;BME280;10663;42.714;23.274;2024-03-25T02:34:56;93586.94;;;3.00;100.00
21011;BME280;10663;42.714;23.274;2024-03-25T02:36:27;93586.69;;;3.01;100.00
21011;BME280;10663;42.714;23.274;2024-03-25T02:37:57;93583.59;;;3.05;100.00
21011;BME280;10663;42.714;23.274;2024-03-25T02:39:28;93588.38;;;3.13;100.00
21011;BME280;10663;42.714;23.274;2024-03-25T02:40:58;93588.13;;;3.14;100.00
21011;BME280;10663;42.714;23.274;2024-03-25T02:42:29;93588.13;;;3.14;100.00
21011;BME280;10663;42.714;23.274;2024-03-25T02:44:00;93583.00;;;3.24;100.00
21011;BME280;10663;42.714;23.274;2024-03-25T02:45:30;93574.69;;;3.27;100.00
21011;BME280;10663;42.714;23.274;2024-03-25T02:47:01;93586.97;;;3.27;100.00
21011;BME280;10663;42.714;23.274;2024-03-25T02:48:32;93580.16;;;3.26;100.00
21011;BME280;10663;42.714;23.274;2024-03-25T02:50:02;93585.06;;;3.22;100.00
21011;BME280;10663;42.714;23.274;2024-03-25T02:51:33;93593.41;;;3.19;100.00
21011;BME280;10663;42.714;23.274;2024-03-25T02:53:03;93608.38;;;3.24;100.00
21011;BME280;10663;42.714;23.274;2024-03-25T02:54:34;93607.38;;;3.30;100.00
21011;BME280;10663;42.714;23.274;2024-03-25T02:56:04;93617.59;;;3.31;100.00
21011;BME280;10663;42.714;23.274;2024-03-25T02:57:35;93614.09;;;3.21;100.00
21011;BME280;10663;42.714;23.274;2024-03-25T02:59:06;93592.91;;;3.22;100.00
21011;BME280;10663;42.714;23.274;2024-03-25T03:00:37;93589.06;;;3.30;100.00
21011;BME280;10663;42.714;23.274;2024-03-25T03:02:07;93602.59;;;3.22;100.00
21011;BME280;10663;42.714;23.274;2024-03-25T03:03:38;93611.72;;;3.19;100.00
21011;BME280;10663;42.714;23.274;2024-03-25T03:05:08;93612.81;;;3.23;100.00
21011;BME280;10663;42.714;23.274;2024-03-25T03:06:39;93625.66;;;3.25;100.00
21011;BME280;10663;42.714;23.274;2024-03-25T03:08:09;93608.81;;;3.16;100.00
21011;BME280;10663;42.714;23.274;2024-03-25T03:09:40;93611.44;;;3.16;100.00
21011;BME280;10663;42.714;23.274;2024-03-25T03:11:10;93603.38;;;3.22;100.00
21011;BME280;10663;42.714;23.274;2024-03-25T03:12:41;93624.63;;;3.26;100.00
21011;BME280;10663;42.714;23.274;2024-03-25T03:14:11;93608.94;;;3.26;100.00
21011;BME280;10663;42.714;23.274;2024-03-25T03:15:44;93613.91;;;3.27;100.00
21011;BME280;10663;42.714;23.274;2024-03-25T03:17:15;93607.63;;;3.28;100.00
21011;BME280;10663;42.714;23.274;2024-03-25T03:18:46;93598.50;;;3.31;100.00
21011;BME280;10663;42.714;23.274;2024-03-25T03:20:16;93597.47;;;3.32;100.00
21011;BME280;10663;42.714;23.274;2024-03-25T03:21:47;93607.91;;;3.27;100.00
21011;BME280;10663;42.714;23.274;2024-03-25T03:23:17;93597.72;;;3.30;100.00
21011;BME280;10663;42.714;23.274;2024-03-25T03:24:48;93608.47;;;3.34;100.00
21011;BME280;10663;42.714;23.274;2024-03-25T03:26:19;93600.31;;;3.30;100.00
21011;BME280;10663;42.714;23.274;2024-03-25T03:27:50;93616.56;;;3.32;100.00
21011;BME280;10663;42.714;23.274;2024-03-25T03:29:20;93633.59;;;3.35;100.00
21011;BME280;10663;42.714;23.274;2024-03-25T03:30:51;93650.91;;;3.36;100.00
21011;BME280;10663;42.714;23.274;2024-03-25T03:32:21;93656.13;;;3.36;100.00
21011;BME280;10663;42.714;23.274;2024-03-25T03:33:52;93636.50;;;3.38;100.00
21011;BME280;10663;42.714;23.274;2024-03-25T03:35:22;93630.78;;;3.42;100.00
21011;BME280;10663;42.714;23.274;2024-03-25T03:36:53;93630.44;;;3.33;100.00
21011;BME280;10663;42.714;23.274;2024-03-25T03:38:23;93623.75;;;3.42;100.00
21011;BME280;10663;42.714;23.274;2024-03-25T03:39:54;93627.69;;;3.45;100.00
21011;BME280;10663;42.714;23.274;2024-03-25T03:41:24;93642.72;;;3.54;100.00
21011;BME280;10663;42.714;23.274;2024-03-25T03:42:55;93647.31;;;3.47;100.00
21011;BME280;10663;42.714;23.274;2024-03-25T03:44:25;93638.50;;;3.53;100.00
21011;BME280;10663;42.714;23.274;2024-03-25T03:45:56;93647.94;;;3.54;100.00
21011;BME280;10663;42.714;23.274;2024-03-25T03:47:27;93647.19;;;3.59;100.00
21011;BME280;10663;42.714;23.274;2024-03-25T03:48:57;93644.31;;;3.60;100.00
21011;BME280;10663;42.714;23.274;2024-03-25T03:50:27;93650.25;;;3.51;100.00
21011;BME280;10663;42.714;23.274;2024-03-25T03:51:58;93672.75;;;3.52;100.00
21011;BME280;10663;42.714;23.274;2024-03-25T03:53:28;93655.72;;;3.49;100.00
21011;BME280;10663;42.714;23.274;2024-03-25T03:54:59;93630.16;;;3.56;100.00
21011;BME280;10663;42.714;23.274;2024-03-25T03:56:30;93639.56;;;3.57;100.00
21011;BME280;10663;42.714;23.274;2024-03-25T03:58:00;93637.47;;;3.54;100.00
21011;BME280;10663;42.714;23.274;2024-03-25T03:59:31;93645.31;;;3.54;100.00
21011;BME280;10663;42.714;23.274;2024-03-25T04:01:02;93657.00;;;3.47;100.00
21011;BME280;10663;42.714;23.274;2024-03-25T04:02:34;93669.56;;;3.45;100.00
21011;BME280;10663;42.714;23.274;2024-03-25T04:04:04;93657.53;;;3.49;100.00
21011;BME280;10663;42.714;23.274;2024-03-25T04:05:35;93657.34;;;3.55;100.00
21011;BME280;10663;42.714;23.274;2024-03-25T04:07:05;93664.16;;;3.56;100.00
21011;BME280;10663;42.714;23.274;2024-03-25T04:08:36;93671.66;;;3.48;100.00
21011;BME280;10663;42.714;23.274;2024-03-25T04:10:06;93678.19;;;3.45;100.00
21011;BME280;10663;42.714;23.274;2024-03-25T04:11:37;93679.28;;;3.49;100.00
21011;BME280;10663;42.714;23.274;2024-03-25T04:13:07;93676.19;;;3.52;100.00
21011;BME280;10663;42.714;23.274;2024-03-25T04:14:38;93684.75;;;3.48;100.00
21011;BME280;10663;42.714;23.274;2024-03-25T04:16:09;93682.69;;;3.50;100.00
21011;BME280;10663;42.714;23.274;2024-03-25T04:17:39;93656.81;;;3.53;100.00
21011;BME280;10663;42.714;23.274;2024-03-25T04:19:10;93675.66;;;3.55;100.00
21011;BME280;10663;42.714;23.274;2024-03-25T04:20:41;93668.38;;;3.57;100.00
21011;BME280;10663;42.714;23.274;2024-03-25T04:22:11;93675.44;;;3.57;100.00
21011;BME280;10663;42.714;23.274;2024-03-25T04:23:42;93680.13;;;3.55;100.00
21011;BME280;10663;42.714;23.274;2024-03-25T04:25:15;93698.00;;;3.63;100.00
21011;BME280;10663;42.714;23.274;2024-03-25T04:26:45;93686.25;;;3.65;100.00
21011;BME280;10663;42.714;23.274;2024-03-25T04:28:16;93702.16;;;3.59;100.00
21011;BME280;10663;42.714;23.274;2024-03-25T04:29:46;93684.38;;;3.61;100.00
21011;BME280;10663;42.714;23.274;2024-03-25T04:31:17;93697.69;;;3.59;100.00
21011;BME280;10663;42.714;23.274;2024-03-25T04:32:47;93691.69;;;3.59;100.00
21011;BME280;10663;42.714;23.274;2024-03-25T04:34:18;93678.09;;;3.62;100.00
21011;BME280;10663;42.714;23.274;2024-03-25T04:35:49;93697.03;;;3.69;100.00
21011;BME280;10663;42.714;23.274;2024-03-25T04:37:19;93713.44;;;3.64;100.00
21011;BME280;10663;42.714;23.274;2024-03-25T04:38:51;93716.06;;;3.64;100.00
21011;BME280;10663;42.714;23.274;2024-03-25T04:40:21;93729.91;;;3.60;100.00
21011;BME280;10663;42.714;23.274;2024-03-25T04:41:52;93737.19;;;3.58;100.00
21011;BME280;10663;42.714;23.274;2024-03-25T04:43:23;93738.06;;;3.63;100.00
21011;BME280;10663;42.714;23.274;2024-03-25T04:44:53;93736.97;;;3.59;100.00
21011;BME280;10663;42.714;23.274;2024-03-25T04:46:24;93737.44;;;3.56;100.00
21011;BME280;10663;42.714;23.274;2024-03-25T04:47:54;93731.72;;;3.59;100.00
21011;BME280;10663;42.714;23.274;2024-03-25T04:49:25;93738.88;;;3.64;100.00
21011;BME280;10663;42.714;23.274;2024-03-25T04:50:56;93746.94;;;3.62;100.00
21011;BME280;10663;42.714;23.274;2024-03-25T04:52:26;93740.41;;;3.65;100.00
21011;BME280;10663;42.714;23.274;2024-03-25T04:53:57;93748.63;;;3.73;100.00
21011;BME280;10663;42.714;23.274;2024-03-25T04:55:27;93748.94;;;3.77;100.00
21011;BME280;10663;42.714;23.274;2024-03-25T04:56:58;93752.66;;;3.81;100.00
21011;BME280;10663;42.714;23.274;2024-03-25T04:58:28;93746.31;;;3.77;100.00
21011;BME280;10663;42.714;23.274;2024-03-25T04:59:59;93743.94;;;3.75;100.00
21011;BME280;10663;42.714;23.274;2024-03-25T05:01:29;93741.06;;;3.77;100.00
21011;BME280;10663;42.714;23.274;2024-03-25T05:03:00;93749.25;;;3.81;100.00
21011;BME280;10663;42.714;23.274;2024-03-25T05:04:30;93752.09;;;3.79;100.00
21011;BME280;10663;42.714;23.274;2024-03-25T05:06:01;93740.19;;;3.93;100.00
21011;BME280;10663;42.714;23.274;2024-03-25T05:07:32;93755.56;;;3.85;100.00
21011;BME280;10663;42.714;23.274;2024-03-25T05:09:02;93742.97;;;3.82;100.00
21011;BME280;10663;42.714;23.274;2024-03-25T05:10:33;93758.19;;;3.85;100.00
21011;BME280;10663;42.714;23.274;2024-03-25T05:12:03;93753.44;;;3.82;100.00
21011;BME280;10663;42.714;23.274;2024-03-25T05:13:34;93751.91;;;3.86;100.00
21011;BME280;10663;42.714;23.274;2024-03-25T05:15:05;93739.81;;;3.80;100.00
21011;BME280;10663;42.714;23.274;2024-03-25T05:16:36;93761.31;;;3.82;100.00
21011;BME280;10663;42.714;23.274;2024-03-25T05:18:09;93748.38;;;3.75;100.00
21011;BME280;10663;42.714;23.274;2024-03-25T05:19:40;93756.22;;;3.75;100.00
21011;BME280;10663;42.714;23.274;2024-03-25T05:21:10;93760.19;;;3.78;100.00
21011;BME280;10663;42.714;23.274;2024-03-25T05:22:41;93758.19;;;3.85;100.00
21011;BME280;10663;42.714;23.274;2024-03-25T05:24:11;93745.03;;;3.80;100.00
21011;BME280;10663;42.714;23.274;2024-03-25T05:25:42;93739.91;;;3.90;100.00
21011;BME280;10663;42.714;23.274;2024-03-25T05:27:12;93756.59;;;3.84;100.00
21011;BME280;10663;42.714;23.274;2024-03-25T05:28:43;93758.72;;;3.87;100.00
21011;BME280;10663;42.714;23.274;2024-03-25T05:30:13;93756.91;;;3.87;100.00
21011;BME280;10663;42.714;23.274;2024-03-25T05:31:57;93761.34;;;3.87;100.00
21011;BME280;10663;42.714;23.274;2024-03-25T05:33:28;93763.47;;;3.90;100.00
21011;BME280;10663;42.714;23.274;2024-03-25T05:34:58;93761.09;;;3.88;100.00
21011;BME280;10663;42.714;23.274;2024-03-25T05:36:28;93776.63;;;3.95;100.00
21011;BME280;10663;42.714;23.274;2024-03-25T05:37:59;93768.47;;;3.91;100.00
21011;BME280;10663;42.714;23.274;2024-03-25T05:39:29;93770.34;;;3.96;100.00
21011;BME280;10663;42.714;23.274;2024-03-25T05:41:00;93780.09;;;4.00;100.00
21011;BME280;10663;42.714;23.274;2024-03-25T05:42:30;93775.09;;;3.99;100.00
21011;BME280;10663;42.714;23.274;2024-03-25T05:44:01;93768.88;;;4.05;100.00
21011;BME280;10663;42.714;23.274;2024-03-25T05:45:31;93774.50;;;4.19;100.00
21011;BME280;10663;42.714;23.274;2024-03-25T05:47:02;93775.56;;;4.18;100.00
21011;BME280;10663;42.714;23.274;2024-03-25T05:48:33;93779.03;;;4.28;100.00
21011;BME280;10663;42.714;23.274;2024-03-25T05:50:03;93787.41;;;4.25;100.00
21011;BME280;10663;42.714;23.274;2024-03-25T05:51:35;93779.78;;;4.24;100.00
21011;BME280;10663;42.714;23.274;2024-03-25T05:53:06;93801.84;;;4.28;99.93
21011;BME280;10663;42.714;23.274;2024-03-25T05:54:37;93791.38;;;4.28;100.00
21011;BME280;10663;42.714;23.274;2024-03-25T05:56:07;93790.38;;;4.34;99.94
21011;BME280;10663;42.714;23.274;2024-03-25T05:57:38;93785.41;;;4.37;100.00
21011;BME280;10663;42.714;23.274;2024-03-25T05:59:08;93791.84;;;4.51;100.00
21011;BME280;10663;42.714;23.274;2024-03-25T06:00:39;93794.66;;;4.45;99.66
21011;BME280;10663;42.714;23.274;2024-03-25T06:02:09;93803.50;;;4.39;99.85
21011;BME280;10663;42.714;23.274;2024-03-25T06:03:40;93803.81;;;4.42;100.00
21011;BME280;10663;42.714;23.274;2024-03-25T06:05:10;93811.88;;;4.36;99.17
21011;BME280;10663;42.714;23.274;2024-03-25T06:06:41;93813.97;;;4.34;99.83
21011;BME280;10663;42.714;23.274;2024-03-25T06:08:12;93807.72;;;4.40;99.74
21011;BME280;10663;42.714;23.274;2024-03-25T06:09:54;93796.53;;;4.49;99.56
21011;BME280;10663;42.714;23.274;2024-03-25T06:11:25;93810.22;;;4.57;99.52
21011;BME280;10663;42.714;23.274;2024-03-25T06:12:55;93813.38;;;4.59;98.93
21011;BME280;10663;42.714;23.274;2024-03-25T06:14:26;93816.56;;;4.61;98.22
21011;BME280;10663;42.714;23.274;2024-03-25T06:15:56;93820.53;;;4.63;98.42
21011;BME280;10663;42.714;23.274;2024-03-25T06:17:27;93822.88;;;4.65;97.69
21011;BME280;10663;42.714;23.274;2024-03-25T06:18:57;93816.69;;;4.76;97.26
21011;BME280;10663;42.714;23.274;2024-03-25T06:20:27;93840.78;;;4.73;96.90
21011;BME280;10663;42.714;23.274;2024-03-25T06:21:58;93846.31;;;4.76;95.65
21011;BME280;10663;42.714;23.274;2024-03-25T06:23:29;93840.25;;;4.71;95.94
21011;BME280;10663;42.714;23.274;2024-03-25T06:24:59;93829.06;;;4.80;96.22
21011;BME280;10663;42.714;23.274;2024-03-25T06:26:30;93828.63;;;4.94;96.34
21011;BME280;10663;42.714;23.274;2024-03-25T06:28:01;93830.69;;;5.23;95.09
21011;BME280;10663;42.714;23.274;2024-03-25T06:29:31;93832.16;;;5.09;92.82
21011;BME280;10663;42.714;23.274;2024-03-25T06:31:02;93831.69;;;5.59;93.81
21011;BME280;10663;42.714;23.274;2024-03-25T06:32:51;93829.09;;;5.70;93.10
21011;BME280;10663;42.714;23.274;2024-03-25T06:34:40;93823.06;;;5.22;91.71
21011;BME280;10663;42.714;23.274;2024-03-25T06:36:10;93843.81;;;5.23;92.20
21011;BME280;10663;42.714;23.274;2024-03-25T06:37:41;93838.94;;;5.05;92.75
21011;BME280;10663;42.714;23.274;2024-03-25T06:39:12;93856.34;;;4.84;92.95
21011;BME280;10663;42.714;23.274;2024-03-25T06:40:42;93858.41;;;5.09;94.17
21011;BME280;10663;42.714;23.274;2024-03-25T06:42:13;93853.47;;;4.86;94.63
21011;BME280;10663;42.714;23.274;2024-03-25T06:43:43;93844.03;;;4.85;94.63
21011;BME280;10663;42.714;23.274;2024-03-25T06:45:14;93849.47;;;4.73;94.07
21011;BME280;10663;42.714;23.274;2024-03-25T06:46:46;93856.06;;;4.81;94.93
21011;BME280;10663;42.714;23.274;2024-03-25T06:48:16;93881.75;;;4.79;95.21
21011;BME280;10663;42.714;23.274;2024-03-25T06:49:47;93853.47;;;4.86;95.20
21011;BME280;10663;42.714;23.274;2024-03-25T06:51:18;93847.50;;;4.91;94.71
21011;BME280;10663;42.714;23.274;2024-03-25T06:52:48;93861.97;;;4.98;95.23
21011;BME280;10663;42.714;23.274;2024-03-25T06:54:19;93888.56;;;4.80;94.01
21011;BME280;10663;42.714;23.274;2024-03-25T06:55:57;93869.44;;;4.79;94.67
21011;BME280;10663;42.714;23.274;2024-03-25T06:57:28;93896.00;;;4.88;94.50
21011;BME280;10663;42.714;23.274;2024-03-25T06:58:59;93867.69;;;4.90;92.84
21011;BME280;10663;42.714;23.274;2024-03-25T07:00:29;93869.09;;;5.03;92.39
21011;BME280;10663;42.714;23.274;2024-03-25T07:02:00;93862.25;;;5.02;91.07
21011;BME280;10663;42.714;23.274;2024-03-25T07:03:31;93861.69;;;5.26;91.95
21011;BME280;10663;42.714;23.274;2024-03-25T07:05:02;93878.31;;;5.42;91.21
21011;BME280;10663;42.714;23.274;2024-03-25T07:06:32;93888.97;;;5.31;90.82
21011;BME280;10663;42.714;23.274;2024-03-25T07:08:03;93879.84;;;5.38;89.95
21011;BME280;10663;42.714;23.274;2024-03-25T07:09:33;93865.59;;;5.29;89.83
21011;BME280;10663;42.714;23.274;2024-03-25T07:11:04;93900.03;;;5.33;89.08
21011;BME280;10663;42.714;23.274;2024-03-25T07:12:34;93870.75;;;5.51;89.78
21011;BME280;10663;42.714;23.274;2024-03-25T07:14:05;93865.56;;;5.61;89.12
21011;BME280;10663;42.714;23.274;2024-03-25T07:15:36;93895.09;;;5.41;88.31
21011;BME280;10663;42.714;23.274;2024-03-25T07:17:07;93904.81;;;5.41;89.12
21011;BME280;10663;42.714;23.274;2024-03-25T07:18:37;93878.47;;;5.25;87.90
21011;BME280;10663;42.714;23.274;2024-03-25T07:20:08;93890.97;;;5.50;89.58
21011;BME280;10663;42.714;23.274;2024-03-25T07:21:39;93892.56;;;5.56;88.46
21011;BME280;10663;42.714;23.274;2024-03-25T07:23:09;93930.13;;;5.57;87.74
21011;BME280;10663;42.714;23.274;2024-03-25T07:24:40;93902.00;;;5.52;86.69
21011;BME280;10663;42.714;23.274;2024-03-25T07:26:11;93903.44;;;5.70;86.95
21011;BME280;10663;42.714;23.274;2024-03-25T07:27:41;93902.53;;;5.91;87.15
21011;BME280;10663;42.714;23.274;2024-03-25T07:29:12;93886.31;;;6.05;87.49
21011;BME280;10663;42.714;23.274;2024-03-25T07:30:42;93889.13;;;5.88;87.23
21011;BME280;10663;42.714;23.274;2024-03-25T07:32:13;93881.00;;;5.94;86.44
21011;BME280;10663;42.714;23.274;2024-03-25T07:33:43;93894.44;;;6.03;85.63
21011;BME280;10663;42.714;23.274;2024-03-25T07:35:14;93903.91;;;5.99;84.89
21011;BME280;10663;42.714;23.274;2024-03-25T07:36:47;93894.56;;;6.33;85.19
21011;BME280;10663;42.714;23.274;2024-03-25T07:38:19;93917.53;;;5.91;83.80
21011;BME280;10663;42.714;23.274;2024-03-25T07:39:49;93880.00;;;6.06;84.03
21011;BME280;10663;42.714;23.274;2024-03-25T07:41:22;93901.41;;;6.39;84.45
21011;BME280;10663;42.714;23.274;2024-03-25T07:42:52;93891.69;;;6.35;84.09
21011;BME280;10663;42.714;23.274;2024-03-25T07:44:23;93903.22;;;6.29;82.95
21011;BME280;10663;42.714;23.274;2024-03-25T07:45:53;93898.34;;;6.63;83.20
21011;BME280;10663;42.714;23.274;2024-03-25T07:47:24;93892.59;;;6.81;83.45
21011;BME280;10663;42.714;23.274;2024-03-25T07:48:55;93897.84;;;6.76;81.02
21011;BME280;10663;42.714;23.274;2024-03-25T07:50:25;93911.75;;;6.61;80.81
21011;BME280;10663;42.714;23.274;2024-03-25T07:51:55;93907.78;;;6.59;80.06
21011;BME280;10663;42.714;23.274;2024-03-25T07:53:26;93897.03;;;6.65;82.81
21011;BME280;10663;42.714;23.274;2024-03-25T07:54:56;93891.81;;;6.86;81.78
21011;BME280;10663;42.714;23.274;2024-03-25T07:56:27;93936.97;;;6.52;80.69